Ws Pegasus — PR4174 — position and weather

sailwx.info

Track history (hours):
 
Tides and Currents Weather Stations Pressure Air Temp Water Temp Dewpoint Dewpoint Depression Visibility Wind Speed Wind Dir Waves Ship Positions

Ws Pegasus

Last reported at 2018-Jul-21 03:30 UTC. Time now 2018-Jul-21 21:18 UTC.
Position S 23°59' W 046°18'.

Length 20 m; draft 5.6 m.

MMSI: 710018340.

Date/timePositionNaut miles runAvg speedWind from/ knotsBaromVisibWave heightAir tempDewpointWater temp
2018-Jul-21 03:30S 23°59' W 046°18'1 1.4
2018-Jul-21 03:00S 23°58' W 046°17'1 0.1
2018-Jul-20 20:35S 23°59' W 046°17'0 2.8
2018-Jul-20 20:30S 23°59' W 046°18'0 0.1
2018-Jul-20 17:20S 23°59' W 046°17'0 0.2
2018-Jul-20 16:59S 23°59' W 046°17'1 1.1
2018-Jul-20 16:29S 23°59' W 046°18'0 0.0
2018-Jul-20 15:59S 23°59' W 046°18'0 0.0
2018-Jul-20 15:26S 23°59' W 046°18'1 2.3
2018-Jul-20 15:00S 23°59' W 046°17'1 1.3
2018-Jul-20 14:00S 23°60' W 046°18'2 0.5
2018-Jul-20 10:53S 23°58' W 046°18'0 0.7
2018-Jul-20 10:29S 23°58' W 046°18'2 4.0
2018-Jul-20 10:00S 23°60' W 046°18'1 0.0
2018-Jul-18 21:11S 23°59' W 046°18'0 0.0
2018-Jul-18 02:26S 23°59' W 046°18'1 1.9
2018-Jul-18 01:58S 23°60' W 046°19'0 0.0
2018-Jul-17 22:37S 23°60' W 046°18'1 6.6
2018-Jul-17 22:30S 23°59' W 046°18'0 0.0
2018-Jul-16 16:22S 23°59' W 046°18'1 3.8
2018-Jul-16 16:00S 23°58' W 046°18'1 0.1
2018-Jul-16 01:23S 23°59' W 046°17'2 6.1
2018-Jul-16 01:00S 23°60' W 046°20'1 0.5
2018-Jul-15 21:57S 23°60' W 046°18'2 3.3
2018-Jul-15 21:26S 23°58' W 046°18'0 0.2
2018-Jul-15 21:00S 23°58' W 046°18'0 0.0
2018-Jul-15 14:13S 23°58' W 046°18'1 0.1
2018-Jul-14 18:27S 23°59' W 046°17'1 2.6
2018-Jul-14 18:00S 23°60' W 046°19'2 0.4
2018-Jul-14 13:13S 23°58' W 046°18'0 0.0
2018-Jul-14 12:59S 23°58' W 046°18'0 0.7
2018-Jul-14 12:28S 23°58' W 046°18'0 0.4
2018-Jul-14 11:14S 23°58' W 046°18'0 0.0
2018-Jul-14 11:00S 23°58' W 046°18'2 2.4
2018-Jul-14 10:22S 23°59' W 046°18'0 0.2
2018-Jul-14 09:15S 23°59' W 046°18'2 0.4
2018-Jul-14 04:31S 23°58' W 046°18'2 0.4
2018-Jul-14 00:37S 23°59' W 046°18'1 6.2
2018-Jul-14 00:27S 23°58' W 046°18'1 1.8
2018-Jul-14 00:00S 23°58' W 046°18'2 3.2
2018-Jul-13 23:28S 23°59' W 046°18'0 0.4
2018-Jul-13 23:00S 23°59' W 046°18'0 0.0
2018-Jul-13 22:28S 23°59' W 046°18'1 1.1
2018-Jul-13 21:51S 23°60' W 046°18'0 1.0
2018-Jul-13 21:30S 23°60' W 046°19'1 0.1
2018-Jul-13 11:24S 23°59' W 046°17'1 0.1
2018-Jul-13 03:44S 23°60' W 046°18'1 6.1
2018-Jul-13 03:30S 23°58' W 046°17'1 0.1
2018-Jul-12 10:54S 23°59' W 046°18'2 4.4
2018-Jul-12 10:30S 23°60' W 046°19'2 0.1
2018-Jul-11 19:48S 23°58' W 046°18'0 0.7
2018-Jul-11 19:24S 23°58' W 046°18'2 3.9
2018-Jul-11 19:00S 23°59' W 046°17'1 2.1
2018-Jul-11 18:21S 23°58' W 046°18'2 4.2
2018-Jul-11 17:56S 23°60' W 046°18'  
Track history (hours):
 
Tides and Currents Weather Stations Pressure Air Temp Water Temp Dewpoint Dewpoint Depression Visibility Wind Speed Wind Dir Waves Ship Positions

Ws Pegasus

Last reported at 2018-Jul-21 03:30 UTC. Time now 2018-Jul-21 21:18 UTC.
Position S 23°59' W 046°18'.

Length 20 m; draft 5.6 m.

MMSI: 710018340.

Date/timePositionNaut miles runAvg speedWind from/ knotsBaromVisibWave heightAir tempDewpointWater temp
2018-Jul-21 03:30S 23°59' W 046°18'1 1.4
2018-Jul-21 03:00S 23°58' W 046°17'1 0.1
2018-Jul-20 20:35S 23°59' W 046°17'0 2.8
2018-Jul-20 20:30S 23°59' W 046°18'0 0.1
2018-Jul-20 17:20S 23°59' W 046°17'0 0.2
2018-Jul-20 16:59S 23°59' W 046°17'1 1.1
2018-Jul-20 16:29S 23°59' W 046°18'0 0.0
2018-Jul-20 15:59S 23°59' W 046°18'0 0.0
2018-Jul-20 15:26S 23°59' W 046°18'1 2.3
2018-Jul-20 15:00S 23°59' W 046°17'1 1.3
2018-Jul-20 14:00S 23°60' W 046°18'2 0.5
2018-Jul-20 10:53S 23°58' W 046°18'0 0.7
2018-Jul-20 10:29S 23°58' W 046°18'2 4.0
2018-Jul-20 10:00S 23°60' W 046°18'1 0.0
2018-Jul-18 21:11S 23°59' W 046°18'0 0.0
2018-Jul-18 02:26S 23°59' W 046°18'1 1.9
2018-Jul-18 01:58S 23°60' W 046°19'0 0.0
2018-Jul-17 22:37S 23°60' W 046°18'1 6.6
2018-Jul-17 22:30S 23°59' W 046°18'0 0.0
2018-Jul-16 16:22S 23°59' W 046°18'1 3.8
2018-Jul-16 16:00S 23°58' W 046°18'1 0.1
2018-Jul-16 01:23S 23°59' W 046°17'2 6.1
2018-Jul-16 01:00S 23°60' W 046°20'1 0.5
2018-Jul-15 21:57S 23°60' W 046°18'2 3.3
2018-Jul-15 21:26S 23°58' W 046°18'0 0.2
2018-Jul-15 21:00S 23°58' W 046°18'0 0.0
2018-Jul-15 14:13S 23°58' W 046°18'1 0.1
2018-Jul-14 18:27S 23°59' W 046°17'1 2.6
2018-Jul-14 18:00S 23°60' W 046°19'2 0.4
2018-Jul-14 13:13S 23°58' W 046°18'0 0.0
2018-Jul-14 12:59S 23°58' W 046°18'0 0.7
2018-Jul-14 12:28S 23°58' W 046°18'0 0.4
2018-Jul-14 11:14S 23°58' W 046°18'0 0.0
2018-Jul-14 11:00S 23°58' W 046°18'2 2.4
2018-Jul-14 10:22S 23°59' W 046°18'0 0.2
2018-Jul-14 09:15S 23°59' W 046°18'2 0.4
2018-Jul-14 04:31S 23°58' W 046°18'2 0.4
2018-Jul-14 00:37S 23°59' W 046°18'1 6.2
2018-Jul-14 00:27S 23°58' W 046°18'1 1.8
2018-Jul-14 00:00S 23°58' W 046°18'2 3.2
2018-Jul-13 23:28S 23°59' W 046°18'0 0.4
2018-Jul-13 23:00S 23°59' W 046°18'0 0.0
2018-Jul-13 22:28S 23°59' W 046°18'1 1.1
2018-Jul-13 21:51S 23°60' W 046°18'0 1.0
2018-Jul-13 21:30S 23°60' W 046°19'1 0.1
2018-Jul-13 11:24S 23°59' W 046°17'1 0.1
2018-Jul-13 03:44S 23°60' W 046°18'1 6.1
2018-Jul-13 03:30S 23°58' W 046°17'1 0.1
2018-Jul-12 10:54S 23°59' W 046°18'2 4.4
2018-Jul-12 10:30S 23°60' W 046°19'2 0.1
2018-Jul-11 19:48S 23°58' W 046°18'0 0.7
2018-Jul-11 19:24S 23°58' W 046°18'2 3.9
2018-Jul-11 19:00S 23°59' W 046°17'1 2.1
2018-Jul-11 18:21S 23°58' W 046°18'2 4.2
2018-Jul-11 17:56S 23°60' W 046°18'  

Dump ship's entire track history